Time;durP1;ratioP1;P1;durP2;ratioP2;P2;SDS_P1;SDS_P2;PMS_P1;PMS_P2;Temp;Humidity;BMP_temperature;BMP_pressure;BME280_temperature;BME280_humidity;BME280_pressure;Samples;Min_cycle;Max_cycle;Signal;HPM_P1;HPM_P2
2022/07/01 00:01:36;;;;;;;4.00;0.63;;;;;;;16.89;100.00;101220.31;5039627;28;20025;-75
2022/07/01 00:04:01;;;;;;;1.85;0.30;;;;;;;16.91;100.00;101223.63;5044031;28;20365;-75
2022/07/01 00:06:27;;;;;;;3.05;1.27;;;;;;;16.90;100.00;101230.00;5046206;28;20035;-75
2022/07/01 00:08:52;;;;;;;0.40;0.40;;;;;;;17.00;100.00;101229.72;5020551;28;20024;-76
2022/07/01 00:11:17;;;;;;;1.25;0.45;;;;;;;16.97;99.43;101214.09;5039203;28;20033;-75
2022/07/01 00:13:43;;;;;;;0.43;0.20;;;;;;;17.05;100.00;101240.66;5039653;28;20021;-75
2022/07/01 00:16:08;;;;;;;1.60;0.50;;;;;;;16.98;98.53;101229.88;5038224;28;20120;-75
2022/07/01 00:18:34;;;;;;;2.28;0.63;;;;;;;17.08;99.06;101247.47;5041340;28;20448;-75
2022/07/01 00:21:01;;;;;;;2.38;0.40;;;;;;;17.06;98.57;101239.66;5038256;28;20035;-75
2022/07/01 00:23:27;;;;;;;3.63;0.95;;;;;;;17.09;99.25;101239.28;5017508;28;20040;-75
2022/07/01 00:25:53;;;;;;;2.38;1.55;;;;;;;17.01;99.02;101236.72;5034401;28;20117;-75
2022/07/01 00:28:18;;;;;;;2.15;0.28;;;;;;;17.02;98.00;101239.16;5035668;28;20115;-75
2022/07/01 00:30:43;;;;;;;0.30;0.20;;;;;;;17.04;98.55;101241.66;5036366;28;20033;-75
2022/07/01 00:33:09;;;;;;;1.13;0.45;;;;;;;16.92;98.67;101246.63;5031431;28;20029;-75
2022/07/01 00:35:34;;;;;;;1.30;0.93;;;;;;;16.94;99.03;101235.75;5032294;28;20486;-75
2022/07/01 00:37:59;;;;;;;1.40;0.65;;;;;;;16.89;99.28;101232.81;5037535;28;20037;-75
2022/07/01 00:40:26;;;;;;;0.77;0.52;;;;;;;16.84;99.42;101234.19;5046257;28;20119;-75
2022/07/01 00:42:52;;;;;;;0.20;0.10;;;;;;;16.77;98.37;101227.09;5020818;28;20037;-75
2022/07/01 00:45:17;;;;;;;3.17;0.40;;;;;;;16.82;98.77;101238.88;5042649;28;20098;-75
2022/07/01 00:47:44;;;;;;;1.70;0.50;;;;;;;16.62;99.17;101237.72;5042862;28;20059;-75
2022/07/01 00:50:15;;;;;;;0.93;0.82;;;;;;;16.63;100.00;101250.03;5039401;28;20148;-75
2022/07/01 00:52:42;;;;;;;1.67;0.40;;;;;;;16.62;100.00;101264.38;5033141;28;20037;-75
2022/07/01 00:55:10;;;;;;;0.47;0.30;;;;;;;16.52;100.00;101253.13;5031027;28;20036;-75
2022/07/01 00:57:37;;;;;;;0.80;0.55;;;;;;;16.53;100.00;101252.13;5039681;28;20056;-75
2022/07/01 01:00:15;;;;;;;2.10;0.95;;;;;;;16.55;100.00;101239.41;5043774;28;20439;-76
2022/07/01 01:02:40;;;;;;;0.40;0.30;;;;;;;16.56;100.00;101233.91;5047600;28;20040;-75
2022/07/01 01:05:07;;;;;;;0.40;0.30;;;;;;;16.47;100.00;101207.53;5043518;28;20017;-75
2022/07/01 01:07:33;;;;;;;0.98;0.25;;;;;;;16.55;100.00;101218.09;5048648;28;20033;-75
2022/07/01 01:10:01;;;;;;;0.65;0.43;;;;;;;16.53;100.00;101222.81;5040519;28;20550;-75
2022/07/01 01:12:27;;;;;;;1.45;0.32;;;;;;;16.38;100.00;101196.94;5043718;28;20021;-75
2022/07/01 01:14:52;;;;;;;0.85;0.70;;;;;;;16.48;100.00;101231.31;5028032;28;20041;-75
2022/07/01 01:17:18;;;;;;;0.80;0.35;;;;;;;16.41;100.00;101241.88;5022834;28;20017;-75
2022/07/01 01:19:45;;;;;;;1.67;0.40;;;;;;;16.36;100.00;101254.09;5038741;28;20111;-75
2022/07/01 01:22:15;;;;;;;1.33;0.80;;;;;;;16.24;100.00;101258.97;5039498;28;20033;-75
2022/07/01 01:24:42;;;;;;;1.55;0.57;;;;;;;16.18;100.00;101281.00;5036198;28;20075;-74
2022/07/01 01:27:08;;;;;;;0.63;0.43;;;;;;;16.08;100.00;101283.88;5036978;28;20045;-75
2022/07/01 01:29:36;;;;;;;1.50;0.15;;;;;;;16.07;100.00;101284.91;5044676;28;20025;-75
2022/07/01 01:32:02;;;;;;;0.30;0.20;;;;;;;16.06;100.00;101269.09;5037935;28;20029;-75
2022/07/01 01:34:28;;;;;;;0.25;0.20;;;;;;;16.08;100.00;101240.47;5042592;28;20037;-75
2022/07/01 01:36:53;;;;;;;1.48;0.47;;;;;;;16.08;100.00;101235.13;5037995;28;20120;-75
2022/07/01 01:39:19;;;;;;;1.08;0.52;;;;;;;16.13;100.00;101243.41;5043787;28;20017;-75
2022/07/01 01:41:46;;;;;;;0.82;0.38;;;;;;;16.20;100.00;101233.69;5035533;28;20453;-75
2022/07/01 01:44:12;;;;;;;2.63;0.30;;;;;;;16.16;100.00;101240.41;5043249;28;20046;-75
2022/07/01 01:46:38;;;;;;;1.90;0.82;;;;;;;16.10;100.00;101214.50;5028634;28;20036;-75
2022/07/01 01:49:04;;;;;;;1.35;0.45;;;;;;;16.11;100.00;101221.47;5038103;28;20481;-75
2022/07/01 01:51:30;;;;;;;0.73;0.40;;;;;;;16.12;100.00;101225.78;5045247;28;20187;-75
2022/07/01 01:53:56;;;;;;;0.20;0.20;;;;;;;16.08;100.00;101233.28;5022712;28;20113;-75
2022/07/01 01:56:22;;;;;;;2.30;0.47;;;;;;;16.08;100.00;101224.50;5035688;28;20208;-75
2022/07/01 01:58:49;;;;;;;0.40;0.28;;;;;;;16.16;100.00;101232.44;5041832;28;20155;-75
2022/07/01 02:01:16;;;;;;;0.40;0.30;;;;;;;16.07;100.00;101238.78;5044982;28;20056;-74
2022/07/01 02:03:43;;;;;;;1.90;0.70;;;;;;;16.01;100.00;101238.50;5040556;28;20078;-74
2022/07/01 02:06:09;;;;;;;0.30;0.30;;;;;;;16.04;100.00;101240.78;5041047;28;20036;-74
2022/07/01 02:08:35;;;;;;;0.50;0.30;;;;;;;15.95;100.00;101236.53;5038697;28;20520;-74
2022/07/01 02:11:01;;;;;;;0.52;0.22;;;;;;;15.96;100.00;101235.53;5035103;28;20136;-75
2022/07/01 02:13:26;;;;;;;0.90;0.57;;;;;;;15.99;100.00;101251.16;5037544;28;20029;-74
2022/07/01 02:15:51;;;;;;;1.55;0.25;;;;;;;15.86;100.00;101258.06;5041868;28;20021;-74
2022/07/01 02:18:17;;;;;;;0.93;0.40;;;;;;;15.62;100.00;101252.66;5041749;28;20033;-74
2022/07/01 02:20:43;;;;;;;0.30;0.20;;;;;;;15.64;100.00;101269.25;5042152;28;20029;-74
2022/07/01 02:23:09;;;;;;;0.43;0.35;;;;;;;15.51;100.00;101271.66;5038016;28;20120;-74
2022/07/01 02:25:34;;;;;;;1.48;0.88;;;;;;;15.45;100.00;101272.34;5036067;28;20527;-74
2022/07/01 02:28:00;;;;;;;1.48;0.40;;;;;;;15.48;100.00;101282.63;5036465;28;20065;-74
2022/07/01 02:30:27;;;;;;;0.80;0.60;;;;;;;15.42;100.00;101289.47;5040495;28;20030;-74
2022/07/01 02:32:52;;;;;;;0.63;0.52;;;;;;;15.48;100.00;101305.72;5038644;28;20147;-74
2022/07/01 02:35:18;;;;;;;4.88;0.38;;;;;;;15.48;100.00;101303.06;5040605;28;20491;-74
2022/07/01 02:37:44;;;;;;;1.58;0.85;;;;;;;15.39;100.00;101308.41;5039911;28;20043;-74
2022/07/01 02:40:10;;;;;;;0.73;0.73;;;;;;;15.39;100.00;101310.25;5041576;28;20164;-74
2022/07/01 02:42:35;;;;;;;3.38;0.70;;;;;;;15.20;100.00;101308.81;5036215;28;20095;-74
2022/07/01 02:45:03;;;;;;;0.43;0.32;;;;;;;15.29;100.00;101314.94;5043085;28;20120;-74
2022/07/01 02:47:33;;;;;;;1.42;0.60;;;;;;;15.27;100.00;101309.78;5041438;28;20172;-75
2022/07/01 02:49:59;;;;;;;1.58;0.50;;;;;;;15.23;100.00;101311.94;5036505;28;20049;-75
2022/07/01 02:52:26;;;;;;;1.88;1.02;;;;;;;15.18;100.00;101308.16;5039166;28;20036;-75
2022/07/01 02:54:52;;;;;;;1.38;0.77;;;;;;;15.21;100.00;101319.25;5042748;28;20024;-75
2022/07/01 02:57:18;;;;;;;4.53;1.15;;;;;;;15.13;100.00;101313.13;5036179;28;20047;-75
2022/07/01 02:59:43;;;;;;;0.88;0.68;;;;;;;15.16;100.00;101318.94;5042154;28;20508;-75
2022/07/01 03:02:08;;;;;;;1.92;0.70;;;;;;;15.07;100.00;101309.34;5041853;28;20033;-75
2022/07/01 03:04:34;;;;;;;0.50;0.30;;;;;;;14.91;100.00;101302.19;5023689;28;20028;-75
2022/07/01 03:06:59;;;;;;;0.82;0.50;;;;;;;15.01;100.00;101318.78;5033712;28;20052;-74
2022/07/01 03:09:25;;;;;;;0.63;0.50;;;;;;;15.02;100.00;101306.31;5037076;28;20104;-74
2022/07/01 03:11:50;;;;;;;5.55;0.60;;;;;;;14.93;100.00;101305.50;5018154;28;20048;-74
2022/07/01 03:14:16;;;;;;;1.13;0.60;;;;;;;14.87;100.00;101306.16;5042643;28;20080;-74
2022/07/01 03:16:41;;;;;;;1.92;0.63;;;;;;;14.84;100.00;101311.81;5041383;28;20475;-75
2022/07/01 03:19:07;;;;;;;3.13;0.85;;;;;;;14.86;100.00;101319.63;5041567;28;20405;-74
2022/07/01 03:21:32;;;;;;;2.08;1.10;;;;;;;14.78;100.00;101318.63;5039102;28;20119;-74
2022/07/01 03:23:58;;;;;;;1.90;1.00;;;;;;;14.79;100.00;101317.66;5039078;28;20024;-74
2022/07/01 03:26:24;;;;;;;2.45;0.82;;;;;;;14.81;100.00;101318.31;5037820;28;20033;-74
2022/07/01 03:28:49;;;;;;;0.98;0.77;;;;;;;14.79;100.00;101312.34;5040759;28;20025;-74
2022/07/01 03:31:14;;;;;;;1.23;0.70;;;;;;;14.78;100.00;101309.84;5042861;28;20398;-75
2022/07/01 03:33:40;;;;;;;1.38;0.60;;;;;;;14.66;100.00;101296.06;5036817;28;20049;-75
2022/07/01 03:36:05;;;;;;;2.42;0.90;;;;;;;14.76;100.00;101312.69;5041922;28;20037;-74
2022/07/01 03:38:31;;;;;;;1.98;0.55;;;;;;;14.72;100.00;101316.66;5037319;28;20076;-74
2022/07/01 03:40:56;;;;;;;1.38;1.00;;;;;;;14.72;100.00;101321.97;5035793;28;20509;-74
2022/07/01 03:43:21;;;;;;;1.33;0.70;;;;;;;14.72;100.00;101334.41;5037758;28;20389;-74
2022/07/01 03:45:47;;;;;;;1.52;0.70;;;;;;;14.59;100.00;101326.94;5041275;28;20023;-75
2022/07/01 03:48:12;;;;;;;2.35;1.48;;;;;;;14.67;100.00;101353.50;5033901;28;20042;-75
2022/07/01 03:50:38;;;;;;;1.98;1.00;;;;;;;14.58;100.00;101354.47;5037311;28;20059;-75
2022/07/01 03:55:49;;;;;;;1.65;0.70;;;;;;;14.66;100.00;101351.03;5032227;28;20037;-74
2022/07/01 03:58:14;;;;;;;0.80;0.40;;;;;;;14.75;100.00;101345.53;5033724;28;20040;-74
2022/07/01 04:00:40;;;;;;;3.25;1.30;;;;;;;14.78;100.00;101344.38;5036570;28;20026;-74
2022/07/01 04:03:06;;;;;;;3.53;0.85;;;;;;;14.72;100.00;101327.28;5040545;28;20489;-74
2022/07/01 04:05:36;;;;;;;2.70;0.80;;;;;;;14.88;100.00;101338.91;5037925;28;20045;-75
2022/07/01 04:08:04;;;;;;;1.50;1.23;;;;;;;14.76;100.00;101341.91;5035699;28;20539;-74
2022/07/01 04:10:33;;;;;;;1.08;0.70;;;;;;;14.79;100.00;101336.25;5035968;28;20025;-74
2022/07/01 04:13:02;;;;;;;4.15;0.60;;;;;;;14.91;100.00;101333.25;5035292;28;20029;-75
2022/07/01 04:15:28;;;;;;;1.98;0.82;;;;;;;14.95;100.00;101334.59;5031783;28;20025;-75
2022/07/01 04:17:55;;;;;;;1.15;1.05;;;;;;;14.94;100.00;101348.88;5034856;28;20485;-74
2022/07/01 04:20:20;;;;;;;1.75;0.85;;;;;;;14.97;100.00;101343.22;5032970;28;20033;-74
2022/07/01 04:22:46;;;;;;;1.08;0.60;;;;;;;15.02;100.00;101347.06;5031971;28;20091;-74
2022/07/01 04:25:12;;;;;;;1.45;0.80;;;;;;;15.04;100.00;101343.38;5034951;28;20059;-74
2022/07/01 04:27:37;;;;;;;6.28;0.80;;;;;;;15.12;100.00;101357.50;5029949;28;20029;-75
2022/07/01 04:30:03;;;;;;;1.42;1.00;;;;;;;15.02;100.00;101356.84;5030909;28;20033;-75
2022/07/01 04:32:30;;;;;;;1.67;0.80;;;;;;;14.95;100.00;101351.34;5037213;28;20474;-76
2022/07/01 04:34:55;;;;;;;2.78;1.10;;;;;;;15.04;100.00;101370.78;5035073;28;20029;-75
2022/07/01 04:37:20;;;;;;;1.40;1.02;;;;;;;15.08;100.00;101371.28;5039583;28;20037;-75
2022/07/01 04:39:46;;;;;;;1.38;0.80;;;;;;;15.10;100.00;101379.94;5036473;28;20033;-75
2022/07/01 04:42:13;;;;;;;1.90;1.08;;;;;;;15.07;100.00;101397.06;5036444;28;20369;-75
2022/07/01 04:44:38;;;;;;;2.17;0.98;;;;;;;15.01;100.00;101403.03;5036006;28;20481;-74
2022/07/01 04:47:04;;;;;;;1.42;1.10;;;;;;;14.89;100.00;101388.41;5014924;28;20040;-74
2022/07/01 04:49:30;;;;;;;1.65;0.93;;;;;;;14.82;100.00;101386.38;5032310;28;20045;-75
2022/07/01 04:51:57;;;;;;;1.98;1.13;;;;;;;14.81;100.00;101395.38;5038517;28;20396;-74
2022/07/01 04:54:23;;;;;;;1.88;0.80;;;;;;;14.77;100.00;101417.94;5036458;28;20067;-74
2022/07/01 04:56:49;;;;;;;4.57;1.45;;;;;;;14.82;100.00;101420.09;5035043;28;20091;-75
2022/07/01 04:59:15;;;;;;;1.42;1.00;;;;;;;14.70;100.00;101411.63;5034372;28;20021;-75
2022/07/01 05:01:42;;;;;;;8.60;1.58;;;;;;;14.76;100.00;101431.38;5029688;28;20485;-75
2022/07/01 05:04:08;;;;;;;2.15;1.13;;;;;;;14.72;100.00;101436.22;5044308;28;20031;-75
2022/07/01 05:06:33;;;;;;;3.83;1.23;;;;;;;14.78;100.00;101438.19;5040146;28;20099;-75
2022/07/01 05:09:00;;;;;;;3.80;1.50;;;;;;;14.67;100.00;101437.69;5038118;28;20025;-75
2022/07/01 05:11:25;;;;;;;1.40;1.10;;;;;;;14.52;100.00;101437.44;5034937;28;20581;-75
2022/07/01 05:13:51;;;;;;;2.75;1.20;;;;;;;14.66;100.00;101442.19;5032202;28;20116;-75
2022/07/01 05:16:17;;;;;;;1.92;1.40;;;;;;;14.58;100.00;101424.38;5036217;28;20057;-75
2022/07/01 05:24:10;;;;;;;4.65;1.13;;;;;;;14.83;100.00;101437.72;5036707;28;20092;-75
2022/07/01 05:26:36;;;;;;;1.88;1.13;;;;;;;14.73;100.00;101429.91;5035176;28;20662;-75
2022/07/01 05:29:01;;;;;;;1.27;1.02;;;;;;;14.87;100.00;101443.53;5035348;28;20025;-75
2022/07/01 05:31:27;;;;;;;2.33;1.20;;;;;;;14.77;100.00;101449.00;5034550;28;20448;-75
2022/07/01 05:33:52;;;;;;;1.88;1.15;;;;;;;14.80;100.00;101452.16;5031565;28;20029;-75
2022/07/01 05:36:17;;;;;;;6.47;1.80;;;;;;;14.92;100.00;101452.69;5035342;28;20112;-75
2022/07/01 05:38:43;;;;;;;3.38;1.58;;;;;;;14.72;100.00;101425.59;5038015;28;20131;-75
2022/07/01 05:41:09;;;;;;;2.00;1.17;;;;;;;14.93;100.00;101459.66;5035939;28;20044;-75
2022/07/01 05:43:34;;;;;;;2.05;1.15;;;;;;;14.99;100.00;101444.88;5033861;28;20084;-75
2022/07/01 05:46:01;;;;;;;3.08;1.42;;;;;;;14.93;100.00;101453.50;5033102;28;20060;-75
2022/07/01 05:48:26;;;;;;;3.50;2.10;;;;;;;14.91;100.00;101466.13;5034566;28;20048;-75
2022/07/01 05:50:52;;;;;;;1.73;1.25;;;;;;;14.84;100.00;101462.47;5034845;28;20045;-70
2022/07/01 05:53:18;;;;;;;1.88;1.20;;;;;;;14.90;100.00;101457.34;5036008;28;20025;-68
2022/07/01 05:55:43;;;;;;;2.88;1.80;;;;;;;14.99;100.00;101464.31;5038023;28;20033;-68
2022/07/01 05:58:12;;;;;;;4.55;1.85;;;;;;;14.96;100.00;101461.16;5033521;28;20110;-69
2022/07/01 06:00:42;;;;;;;2.63;1.75;;;;;;;15.19;100.00;101462.19;5032103;28;20029;-69
2022/07/01 06:03:14;;;;;;;3.03;1.63;;;;;;;15.28;100.00;101456.88;5036178;28;20037;-69
2022/07/01 06:05:41;;;;;;;2.80;1.83;;;;;;;15.38;100.00;101458.38;5033634;28;20069;-69
2022/07/01 06:08:07;;;;;;;2.63;1.40;;;;;;;15.46;100.00;101457.53;5036006;28;20033;-69
2022/07/01 06:10:33;;;;;;;2.38;1.70;;;;;;;15.46;100.00;101465.53;5041014;28;20040;-69
2022/07/01 06:12:59;;;;;;;4.20;2.10;;;;;;;15.32;100.00;101460.88;5038323;28;20096;-69
2022/07/01 06:15:24;;;;;;;3.03;1.88;;;;;;;15.46;100.00;101470.84;5038641;28;20021;-69
2022/07/01 06:17:51;;;;;;;10.10;3.00;;;;;;;15.56;100.00;101460.84;5039683;28;20033;-69
2022/07/01 06:20:17;;;;;;;2.55;1.67;;;;;;;15.61;100.00;101469.16;5022550;28;20529;-69
2022/07/01 06:22:43;;;;;;;9.32;3.00;;;;;;;15.42;100.00;101466.84;5037837;28;20079;-69
2022/07/01 06:25:08;;;;;;;4.32;2.90;;;;;;;15.30;100.00;101463.69;5038271;28;20057;-69
2022/07/01 06:27:41;;;;;;;4.47;2.85;;;;;;;15.43;100.00;101463.19;5036614;28;20031;-71
2022/07/01 06:30:08;;;;;;;8.52;3.58;;;;;;;15.55;100.00;101461.84;5035027;28;20083;-69
2022/07/01 06:32:33;;;;;;;9.05;3.17;;;;;;;15.45;100.00;101455.03;5034910;28;20018;-69
2022/07/01 06:34:59;;;;;;;8.90;3.70;;;;;;;15.55;100.00;101459.19;5037829;28;20401;-69
2022/07/01 06:37:24;;;;;;;4.60;2.92;;;;;;;15.56;100.00;101465.34;5037521;28;20022;-69
2022/07/01 06:39:49;;;;;;;6.18;3.15;;;;;;;15.48;100.00;101463.50;5039204;28;20048;-69
2022/07/01 06:42:15;;;;;;;5.18;3.13;;;;;;;15.56;100.00;101458.19;5034921;28;20119;-69
2022/07/01 06:44:41;;;;;;;5.72;3.30;;;;;;;15.70;100.00;101454.03;5033875;28;20071;-69
2022/07/01 06:47:07;;;;;;;12.93;3.97;;;;;;;15.59;100.00;101441.91;5040521;28;20554;-70
2022/07/01 06:49:32;;;;;;;6.07;3.15;;;;;;;15.89;100.00;101439.53;5036435;28;20061;-69
2022/07/01 06:51:57;;;;;;;8.75;3.25;;;;;;;16.15;100.00;101446.44;5040176;28;20083;-69
2022/07/01 06:54:23;;;;;;;5.35;3.60;;;;;;;16.12;100.00;101441.47;5036485;28;20025;-69
2022/07/01 06:56:48;;;;;;;8.43;3.67;;;;;;;15.97;100.00;101442.19;5039867;28;20037;-69
2022/07/01 06:59:15;;;;;;;7.00;3.35;;;;;;;16.06;100.00;101444.81;5035044;28;20284;-69
2022/07/01 07:01:40;;;;;;;5.10;3.45;;;;;;;16.36;100.00;101456.53;5007143;28;20109;-69
2022/07/01 07:04:06;;;;;;;7.35;3.17;;;;;;;16.52;99.89;101455.63;5037987;28;20022;-69
2022/07/01 07:06:31;;;;;;;3.78;3.13;;;;;;;16.67;97.83;101459.19;5039095;28;20500;-69
2022/07/01 07:08:57;;;;;;;5.32;3.38;;;;;;;16.67;96.93;101457.34;5034803;28;20017;-69
2022/07/01 07:11:22;;;;;;;7.15;2.40;;;;;;;16.85;96.48;101454.47;5039346;28;20032;-69
2022/07/01 07:13:48;;;;;;;4.53;3.35;;;;;;;17.36;95.88;101466.44;5035723;28;20032;-69
2022/07/01 07:16:13;;;;;;;9.65;3.03;;;;;;;17.44;92.17;101455.66;5038231;28;20424;-69
2022/07/01 07:18:39;;;;;;;7.75;3.22;;;;;;;17.67;90.19;101455.63;5037643;28;20017;-69
2022/07/01 07:21:04;;;;;;;6.70;3.67;;;;;;;18.03;91.84;101470.97;5036913;28;20053;-69
2022/07/01 07:23:30;;;;;;;7.47;2.78;;;;;;;18.12;88.70;101461.03;5039277;28;20025;-69
2022/07/01 07:25:56;;;;;;;5.95;2.88;;;;;;;18.36;86.72;101467.94;5033980;28;20106;-71
2022/07/01 07:28:22;;;;;;;4.57;2.70;;;;;;;18.37;85.99;101478.41;5038612;28;20504;-69
2022/07/01 07:30:47;;;;;;;4.45;2.95;;;;;;;18.33;87.37;101458.44;5037245;28;20036;-69
2022/07/01 07:33:12;;;;;;;4.82;3.05;;;;;;;18.62;88.06;101476.28;5011495;28;20041;-70
2022/07/01 07:35:38;;;;;;;4.75;2.80;;;;;;;18.75;85.20;101475.59;5036229;28;20024;-69
2022/07/01 07:38:03;;;;;;;4.55;2.78;;;;;;;18.75;85.95;101475.59;5040025;28;20037;-69
2022/07/01 07:40:29;;;;;;;7.57;2.88;;;;;;;18.53;84.03;101479.22;5037742;28;20036;-70
2022/07/01 07:42:54;;;;;;;5.53;2.50;;;;;;;18.52;83.77;101496.28;5037917;28;20054;-69
2022/07/01 07:45:19;;;;;;;5.47;3.53;;;;;;;18.18;84.08;101487.00;5035077;28;20565;-71
2022/07/01 07:47:54;;;;;;;3.42;2.58;;;;;;;18.02;86.00;101480.00;5041327;28;20022;-70
2022/07/01 07:50:20;;;;;;;13.00;3.55;;;;;;;18.38;86.36;101504.16;5037724;28;20049;-70
2022/07/01 07:52:46;;;;;;;5.60;4.45;;;;;;;18.04;85.31;101500.16;5041778;28;20154;-69
2022/07/01 07:55:11;;;;;;;7.57;3.50;;;;;;;18.40;86.99;101511.94;5036123;28;20021;-69
2022/07/01 07:57:38;;;;;;;9.65;4.22;;;;;;;18.77;83.80;101516.34;5035454;28;20045;-70
2022/07/01 08:00:06;;;;;;;6.50;3.40;;;;;;;18.86;83.14;101515.25;5036467;28;20087;-70
2022/07/01 08:02:31;;;;;;;7.35;2.83;;;;;;;18.95;82.00;101513.28;5036414;28;20029;-69
2022/07/01 08:04:57;;;;;;;7.35;3.15;;;;;;;19.02;83.50;101521.38;5040493;28;20517;-69
2022/07/01 08:07:22;;;;;;;5.75;3.42;;;;;;;18.65;84.02;101525.84;5038177;28;20029;-69
2022/07/01 08:09:49;;;;;;;8.38;3.42;;;;;;;18.29;83.78;101530.13;5040511;28;20033;-69
2022/07/01 08:12:15;;;;;;;7.97;2.72;;;;;;;18.39;84.11;101529.84;5033470;28;20026;-69
2022/07/01 08:14:41;;;;;;;5.13;3.60;;;;;;;18.24;83.66;101526.34;5036308;28;20354;-69
2022/07/01 08:17:06;;;;;;;6.53;2.85;;;;;;;18.16;84.67;101529.09;5034347;28;20186;-70
2022/07/01 08:19:31;;;;;;;7.35;3.50;;;;;;;18.10;85.77;101541.34;5038523;28;20022;-69
2022/07/01 08:21:57;;;;;;;5.10;3.30;;;;;;;17.78;85.76;101539.78;5039867;28;20420;-69
2022/07/01 08:24:22;;;;;;;5.22;3.53;;;;;;;18.07;84.84;101552.38;5036931;28;20378;-69
2022/07/01 08:26:48;;;;;;;6.38;3.40;;;;;;;18.37;84.84;101547.91;5037780;28;20053;-70
2022/07/01 08:29:13;;;;;;;5.78;4.53;;;;;;;18.97;84.04;101546.03;5034993;28;20044;-70
2022/07/01 08:31:39;;;;;;;4.35;3.45;;;;;;;18.96;82.77;101555.06;5036583;28;20488;-69
2022/07/01 08:34:04;;;;;;;4.82;3.47;;;;;;;19.01;83.49;101554.47;5040403;28;20409;-70
2022/07/01 08:36:30;;;;;;;7.35;3.67;;;;;;;19.47;81.17;101559.53;5039280;28;20112;-69
2022/07/01 08:38:55;;;;;;;4.75;2.78;;;;;;;19.23;82.66;101558.88;5035402;28;20497;-70
2022/07/01 08:41:20;;;;;;;3.88;2.92;;;;;;;19.79;81.65;101566.19;5035626;28;20060;-70
2022/07/01 08:43:46;;;;;;;8.05;3.30;;;;;;;20.34;78.56;101571.75;5037995;28;20507;-69
2022/07/01 08:46:12;;;;;;;4.95;2.80;;;;;;;20.59;76.52;101557.91;5028494;28;20059;-69
2022/07/01 08:48:42;;;;;;;5.50;2.97;;;;;;;20.20;76.41;101565.47;5042254;28;20057;-71
2022/07/01 08:51:07;;;;;;;6.45;3.15;;;;;;;20.01;78.10;101544.72;5043426;28;20039;-70
2022/07/01 08:53:35;;;;;;;4.55;3.03;;;;;;;19.36;77.02;101558.19;5036079;28;20489;-70
2022/07/01 08:58:47;;;;;;;6.70;3.25;;;;;;;19.33;80.18;101570.06;5020091;28;20064;-70
2022/07/01 09:01:25;;;;;;;4.30;3.10;;;;;;;19.00;80.20;101566.22;5035462;28;20025;-70
2022/07/01 09:03:53;;;;;;;8.27;3.38;;;;;;;19.60;80.74;101554.28;5035393;28;20431;-70
2022/07/01 09:06:29;;;;;;;3.85;3.22;;;;;;;19.19;81.22;101568.28;5040085;28;20545;-70
2022/07/01 09:09:02;;;;;;;7.57;3.20;;;;;;;19.46;79.90;101553.31;5042269;28;20033;-70
2022/07/01 09:11:28;;;;;;;5.88;3.47;;;;;;;19.28;77.47;101559.13;5036877;28;20304;-70
2022/07/01 09:14:11;;;;;;;6.20;2.97;;;;;;;19.73;78.87;101558.97;5020622;28;20033;-70
2022/07/01 09:16:48;;;;;;;7.72;2.95;;;;;;;20.73;77.82;101530.09;5037502;28;20132;-70
2022/07/01 09:19:15;;;;;;;3.75;2.88;;;;;;;22.79;70.07;101553.44;5044110;28;20067;-70
2022/07/01 09:21:40;;;;;;;6.45;2.58;;;;;;;23.29;66.98;101559.00;5050195;28;20082;-71
2022/07/01 09:24:24;;;;;;;2.35;1.95;;;;;;;22.89;65.42;101561.06;5038101;28;20489;-72
2022/07/01 09:27:01;;;;;;;2.55;1.75;;;;;;;22.82;65.37;101562.94;5038413;28;20505;-72
2022/07/01 09:29:28;;;;;;;1.77;1.25;;;;;;;22.32;66.62;101566.22;5037403;28;20071;-71
2022/07/01 09:31:53;;;;;;;6.22;2.08;;;;;;;21.84;66.07;101570.00;5047299;28;20108;-71
2022/07/01 09:34:20;;;;;;;2.33;1.70;;;;;;;22.08;68.78;101578.44;5043402;28;20098;-71
2022/07/01 09:36:56;;;;;;;5.57;1.60;;;;;;;23.53;63.42;101586.19;5043246;28;20037;-71
2022/07/01 09:39:22;;;;;;;3.33;1.58;;;;;;;22.53;62.83;101581.28;5043239;28;20026;-70
2022/07/01 09:41:47;;;;;;;2.00;1.35;;;;;;;22.36;67.17;101572.81;5033632;28;20030;-69
2022/07/01 09:44:13;;;;;;;4.15;1.48;;;;;;;22.66;64.09;101592.00;5021925;28;20041;-66
2022/07/01 09:46:51;;;;;;;3.88;1.48;;;;;;;22.40;64.91;101598.25;5039552;28;20030;-66
2022/07/01 09:49:17;;;;;;;3.47;1.70;;;;;;;21.46;66.69;101596.59;5044072;28;20049;-69
2022/07/01 09:51:43;;;;;;;12.50;1.40;;;;;;;20.53;69.19;101595.19;5037675;28;20039;-69
2022/07/01 09:54:12;;;;;;;1.45;1.05;;;;;;;20.65;69.92;101603.53;5040473;28;20013;-68
2022/07/01 09:56:37;;;;;;;4.10;1.38;;;;;;;20.32;69.20;101606.81;5037387;28;20225;-68
2022/07/01 09:59:03;;;;;;;2.20;1.40;;;;;;;19.85;71.79;101607.47;5038823;28;20037;-68
2022/07/01 10:01:31;;;;;;;3.38;1.45;;;;;;;20.20;70.64;101612.91;5041941;28;20473;-68
2022/07/01 10:03:58;;;;;;;5.38;1.23;;;;;;;20.64;71.05;101622.47;5040831;28;20025;-69
2022/07/01 10:06:37;;;;;;;5.03;1.80;;;;;;;20.95;70.95;101612.13;5020442;28;20041;-69
2022/07/01 10:09:41;;;;;;;4.70;1.63;;;;;;;20.14;71.58;101609.97;5041837;28;20025;-68
2022/07/01 10:12:31;;;;;;;7.90;2.38;;;;;;;20.09;69.89;101604.34;5037995;28;20033;-69
2022/07/01 10:14:59;;;;;;;2.35;1.33;;;;;;;20.16;70.75;101600.91;5035460;28;20112;-69
2022/07/01 10:17:29;;;;;;;1.60;1.42;;;;;;;20.37;70.93;101616.94;5030370;28;20095;-69
2022/07/01 10:19:57;;;;;;;4.63;2.08;;;;;;;20.22;70.83;101621.56;5032943;28;20033;-69
2022/07/01 10:22:29;;;;;;;3.45;2.00;;;;;;;20.68;69.98;101626.44;5039859;28;20140;-69
2022/07/01 10:24:56;;;;;;;2.10;1.40;;;;;;;20.67;69.26;101627.47;5033665;28;20099;-69
2022/07/01 10:27:25;;;;;;;6.32;1.30;;;;;;;20.45;70.29;101629.38;5035185;28;20091;-69
2022/07/01 10:30:30;;;;;;;3.20;1.52;;;;;;;20.89;70.14;101620.97;5033112;28;20025;-69
2022/07/01 10:32:59;;;;;;;3.70;1.65;;;;;;;22.67;68.26;101620.56;5010267;28;20080;-69
2022/07/01 10:35:24;;;;;;;3.67;1.30;;;;;;;22.75;63.86;101612.22;5011643;28;20429;-69
2022/07/01 10:38:00;;;;;;;1.55;1.25;;;;;;;22.50;63.79;101614.81;5010971;28;20045;-73
2022/07/01 10:40:45;;;;;;;1.35;0.88;;;;;;;22.00;63.32;101617.13;4998430;28;20113;-72
2022/07/01 10:43:10;;;;;;;1.20;0.70;;;;;;;21.64;61.87;101609.44;5014347;28;20050;-69
2022/07/01 10:45:44;;;;;;;4.95;1.15;;;;;;;21.81;66.07;101609.88;5011412;28;20052;-72
2022/07/01 10:48:23;;;;;;;1.50;0.90;;;;;;;22.51;60.91;101616.44;4991700;28;20068;-72
2022/07/01 10:50:50;;;;;;;1.83;0.65;;;;;;;23.74;62.28;101615.47;5020133;28;20033;-73
2022/07/01 10:53:16;;;;;;;2.83;0.73;;;;;;;24.75;59.13;101591.91;5016243;28;20084;-73
2022/07/01 10:55:50;;;;;;;1.88;1.20;;;;;;;23.89;58.15;101617.03;5014300;28;20049;-74
2022/07/01 10:58:20;;;;;;;1.83;1.05;;;;;;;23.70;59.34;101611.56;5015870;28;20025;-74
2022/07/01 11:00:50;;;;;;;3.65;1.20;;;;;;;23.71;58.84;101610.50;5014809;28;20074;-73
2022/07/01 11:03:21;;;;;;;1.40;0.90;;;;;;;24.29;58.81;101612.13;5003136;28;20076;-74
2022/07/01 11:05:49;;;;;;;1.60;1.00;;;;;;;24.68;58.32;101598.47;5020704;28;20088;-73
2022/07/01 11:08:15;;;;;;;3.55;0.98;;;;;;;24.76;57.37;101596.28;5029251;28;20060;-73
2022/07/01 11:10:41;;;;;;;2.75;0.95;;;;;;;24.13;58.52;101616.22;5036238;28;20397;-73
2022/07/01 11:13:08;;;;;;;2.38;1.13;;;;;;;23.34;60.18;101613.06;5039356;28;20489;-73
2022/07/01 11:15:33;;;;;;;5.05;1.10;;;;;;;23.40;61.48;101628.31;5044051;28;20033;-73
2022/07/01 11:18:00;;;;;;;3.42;1.05;;;;;;;24.51;57.19;101627.91;5049430;28;20043;-72
2022/07/01 11:20:29;;;;;;;4.78;1.02;;;;;;;23.93;57.99;101629.03;5038191;28;20225;-71
2022/07/01 11:22:54;;;;;;;3.38;1.52;;;;;;;22.13;62.47;101622.47;5041703;28;20405;-71
2022/07/01 11:25:21;;;;;;;6.93;1.42;;;;;;;21.29;65.30;101625.66;5035511;28;20063;-72
2022/07/01 11:27:50;;;;;;;4.13;1.40;;;;;;;21.15;66.56;101622.13;5043075;28;20039;-71
2022/07/01 11:30:16;;;;;;;1.55;1.00;;;;;;;21.54;68.57;101615.22;5039180;28;20528;-72
2022/07/01 11:32:47;;;;;;;2.30;1.30;;;;;;;22.28;66.61;101629.53;5032405;28;20383;-71